Time;durP1;ratioP1;P1;durP2;ratioP2;P2;SDS_P1;SDS_P2;PMS_P1;PMS_P2;Temp;Humidity;BMP_temperature;BMP_pressure;BME280_temperature;BME280_humidity;BME280_pressure;Samples;Min_cycle;Max_cycle;Signal;HPM_P1;HPM_P2
2024/01/17 00:03:23;;;;;;;24.38;21.92;;;7.80;83.90;;;;;;12619813;28;20028;-74
2024/01/17 00:09:28;;;;;;;36.08;32.95;;;7.70;84.20;;;;;;12637359;28;20039;-74
2024/01/17 00:15:32;;;;;;;23.02;20.92;;;7.70;84.00;;;;;;12636587;28;20036;-74
2024/01/17 00:21:33;;;;;;;59.58;56.28;;;7.60;84.20;;;;;;12653933;28;20317;-74
2024/01/17 00:27:38;;;;;;;22.17;20.23;;;7.60;84.10;;;;;;12653776;28;20333;-74
2024/01/17 00:33:40;;;;;;;22.35;20.48;;;7.40;84.10;;;;;;12635684;28;20036;-74
2024/01/17 00:39:42;;;;;;;23.45;21.52;;;7.20;84.30;;;;;;12653489;28;20348;-75
2024/01/17 00:45:44;;;;;;;17.88;16.05;;;7.20;84.50;;;;;;12659753;28;20322;-74
2024/01/17 00:51:46;;;;;;;21.38;19.20;;;7.20;84.50;;;;;;12663175;28;20032;-74
2024/01/17 00:57:47;;;;;;;19.33;17.35;;;7.20;84.50;;;;;;12662696;28;20035;-74
2024/01/17 01:03:49;;;;;;;30.98;28.77;;;7.20;84.60;;;;;;12645141;28;20039;-74
2024/01/17 01:09:52;;;;;;;20.58;18.48;;;7.30;84.60;;;;;;12662318;28;20032;-74
2024/01/17 01:15:56;;;;;;;28.70;22.52;;;7.50;84.30;;;;;;12644385;28;20035;-74
2024/01/17 01:21:58;;;;;;;32.90;30.33;;;7.20;84.20;;;;;;12662299;28;20035;-74
2024/01/17 01:27:59;;;;;;;19.35;17.30;;;7.00;84.40;;;;;;12643920;28;20028;-74
2024/01/17 01:34:01;;;;;;;25.77;23.58;;;7.00;84.60;;;;;;12661526;28;20032;-74
2024/01/17 01:40:03;;;;;;;23.23;20.13;;;7.10;84.70;;;;;;12661442;28;20032;-74
2024/01/17 01:46:16;;;;;;;29.58;26.77;;;7.20;85.00;;;;;;12642644;28;20443;-74
2024/01/17 01:52:20;;;;;;;22.60;20.13;;;7.40;84.80;;;;;;12661818;28;20051;-74
2024/01/17 01:58:26;;;;;;;31.60;28.77;;;7.40;84.50;;;;;;12641562;28;20035;-74
2024/01/17 02:04:28;;;;;;;36.00;33.35;;;7.30;84.40;;;;;;12659774;28;20356;-74
2024/01/17 02:10:29;;;;;;;20.65;18.63;;;7.20;84.70;;;;;;12659434;28;20036;-74
2024/01/17 02:16:33;;;;;;;40.33;37.08;;;7.30;84.70;;;;;;12659756;28;20325;-74
2024/01/17 02:22:34;;;;;;;35.33;32.50;;;7.50;84.50;;;;;;12641223;28;20032;-73
2024/01/17 02:28:36;;;;;;;20.63;17.75;;;7.50;84.30;;;;;;12658546;28;20341;-74
2024/01/17 02:34:39;;;;;;;29.63;26.92;;;7.50;84.10;;;;;;12640157;28;20364;-74
2024/01/17 02:40:40;;;;;;;31.17;28.52;;;7.40;84.20;;;;;;12657843;28;20032;-75
2024/01/17 02:46:42;;;;;;;28.60;26.05;;;7.50;84.10;;;;;;12657654;28;20028;-74
2024/01/17 02:52:44;;;;;;;35.25;32.22;;;7.50;84.10;;;;;;12657362;28;20042;-74
2024/01/17 02:58:46;;;;;;;28.45;26.08;;;7.60;84.10;;;;;;12639176;28;20035;-74
2024/01/17 03:04:50;;;;;;;28.88;26.50;;;7.60;84.00;;;;;;12656875;28;20036;-74
2024/01/17 03:10:51;;;;;;;33.30;30.60;;;7.50;84.00;;;;;;12655416;28;20028;-74
2024/01/17 03:16:54;;;;;;;24.17;22.17;;;7.20;84.30;;;;;;12656119;28;20344;-74
2024/01/17 03:22:56;;;;;;;24.75;22.45;;;7.30;84.60;;;;;;12671645;28;20448;-74
2024/01/17 03:28:57;;;;;;;20.10;17.75;;;7.20;84.20;;;;;;12637988;28;20229;-74
2024/01/17 03:35:00;;;;;;;18.83;16.85;;;7.10;84.40;;;;;;12637417;28;20343;-74
2024/01/17 03:41:02;;;;;;;19.98;17.52;;;7.00;84.60;;;;;;12637181;28;20032;-74
2024/01/17 03:47:04;;;;;;;20.27;18.17;;;6.90;84.70;;;;;;12654979;28;20043;-74
2024/01/17 03:53:05;;;;;;;21.55;19.42;;;7.10;84.90;;;;;;12654763;28;20040;-76
2024/01/17 03:59:08;;;;;;;21.98;19.60;;;7.40;84.50;;;;;;12636380;28;20036;-76
2024/01/17 04:05:10;;;;;;;52.15;49.08;;;7.70;84.10;;;;;;12637029;28;20024;-75
2024/01/17 04:11:12;;;;;;;32.25;30.05;;;7.80;83.60;;;;;;12620109;28;20032;-76
2024/01/17 04:17:13;;;;;;;34.20;31.55;;;7.50;83.80;;;;;;12619332;28;20051;-76
2024/01/17 04:23:15;;;;;;;52.97;49.72;;;7.50;84.40;;;;;;12653863;28;20035;-76
2024/01/17 04:29:17;;;;;;;39.00;36.00;;;7.70;84.10;;;;;;12653738;28;20036;-76
2024/01/17 04:35:20;;;;;;;47.85;45.08;;;8.00;83.50;;;;;;12653710;28;20043;-75
2024/01/17 04:41:22;;;;;;;58.55;54.40;;;8.20;83.30;;;;;;12654061;28;20455;-76
2024/01/17 04:47:24;;;;;;;53.53;50.28;;;8.30;83.00;;;;;;12653344;28;20032;-76
2024/01/17 04:53:25;;;;;;;37.97;35.35;;;8.60;82.90;;;;;;12635834;28;20040;-76
2024/01/17 04:59:27;;;;;;;51.75;48.90;;;8.50;82.60;;;;;;12635233;28;20448;-76
2024/01/17 05:05:29;;;;;;;51.65;48.17;;;8.50;82.40;;;;;;12635020;28;20554;-76
2024/01/17 05:11:30;;;;;;;48.55;45.25;;;8.50;82.40;;;;;;12634836;28;20028;-76
2024/01/17 05:17:32;;;;;;;68.30;64.30;;;8.70;82.00;;;;;;12634646;28;20374;-76
2024/01/17 05:23:34;;;;;;;44.95;41.53;;;8.60;81.70;;;;;;12634462;28;20351;-76
2024/01/17 05:29:43;;;;;;;66.15;62.50;;;8.40;81.90;;;;;;12653433;28;20040;-76
2024/01/17 05:35:44;;;;;;;43.72;40.53;;;8.60;82.10;;;;;;12661247;28;20024;-76
2024/01/17 05:41:46;;;;;;;37.50;34.55;;;8.70;81.60;;;;;;12660829;28;20043;-76
2024/01/17 05:47:48;;;;;;;42.55;39.20;;;8.50;81.50;;;;;;12660681;28;20028;-76
2024/01/17 05:53:50;;;;;;;27.35;24.88;;;8.20;82.10;;;;;;12642684;28;20040;-76
2024/01/17 05:59:51;;;;;;;28.45;25.70;;;8.20;82.00;;;;;;12659851;28;20036;-76
2024/01/17 06:05:54;;;;;;;21.75;17.50;;;7.70;82.40;;;;;;12625546;28;20036;-76
2024/01/17 06:11:56;;;;;;;28.58;25.90;;;7.70;83.20;;;;;;12659456;28;20352;-76
2024/01/17 06:17:57;;;;;;;48.17;44.80;;;8.10;82.70;;;;;;12659126;28;20040;-76
2024/01/17 06:23:59;;;;;;;39.42;35.75;;;8.20;82.00;;;;;;12640772;28;20054;-76
2024/01/17 06:30:01;;;;;;;59.50;55.83;;;8.30;82.40;;;;;;12641705;28;20047;-73
2024/01/17 06:36:03;;;;;;;47.17;44.15;;;8.70;82.00;;;;;;12660179;28;20032;-74
2024/01/17 06:42:05;;;;;;;45.88;42.30;;;8.90;81.60;;;;;;12657056;28;20024;-74
2024/01/17 06:48:08;;;;;;;59.08;55.17;;;8.90;81.50;;;;;;12639602;28;20028;-76
2024/01/17 06:54:10;;;;;;;74.38;70.22;;;8.90;81.30;;;;;;12658205;28;20397;-76
2024/01/17 07:00:13;;;;;;;72.07;67.63;;;8.90;81.10;;;;;;12632041;22;20457;-76
2024/01/17 07:06:15;;;;;;;86.72;81.55;;;8.70;81.00;;;;;;12606236;28;20353;-75
2024/01/17 07:12:17;;;;;;;78.65;74.05;;;8.70;81.60;;;;;;12656054;28;20024;-77
2024/01/17 07:18:18;;;;;;;85.13;80.47;;;8.90;81.20;;;;;;12638089;28;20044;-75
2024/01/17 07:24:21;;;;;;;60.17;56.40;;;9.00;80.90;;;;;;12637902;28;20020;-75
2024/01/17 07:30:22;;;;;;;112.15;106.82;;;9.10;80.40;;;;;;12637556;28;20035;-74
2024/01/17 07:36:24;;;;;;;92.50;87.10;;;9.20;80.60;;;;;;12655322;28;20036;-75
2024/01/17 07:42:26;;;;;;;76.88;72.35;;;9.30;80.80;;;;;;12655158;28;20348;-75
2024/01/17 07:48:28;;;;;;;99.93;94.63;;;9.30;80.50;;;;;;12654883;28;20031;-75
2024/01/17 07:54:29;;;;;;;83.50;78.57;;;9.30;80.50;;;;;;12635714;28;20043;-75
2024/01/17 08:00:31;;;;;;;106.40;100.78;;;9.20;80.50;;;;;;12620410;28;20040;-75
2024/01/17 08:06:34;;;;;;;113.65;107.88;;;9.20;80.90;;;;;;12586923;28;20361;-74
2024/01/17 08:12:36;;;;;;;63.05;59.28;;;9.30;80.50;;;;;;12603886;28;20033;-75
2024/01/17 08:18:39;;;;;;;86.97;82.05;;;9.20;80.40;;;;;;12603675;28;20028;-75
2024/01/17 08:24:41;;;;;;;87.68;82.50;;;9.10;80.70;;;;;;12586422;28;20032;-75
2024/01/17 08:30:43;;;;;;;83.47;78.65;;;9.00;81.00;;;;;;12603520;28;20032;-75
2024/01/17 08:36:45;;;;;;;60.78;56.92;;;9.10;80.90;;;;;;12585857;28;20036;-75
2024/01/17 08:42:47;;;;;;;72.85;68.80;;;9.00;80.90;;;;;;12585540;28;20040;-75
2024/01/17 08:48:49;;;;;;;85.07;80.43;;;9.00;81.00;;;;;;12585944;28;20361;-75
2024/01/17 08:54:51;;;;;;;85.30;80.97;;;9.10;81.10;;;;;;12602970;28;20036;-75
2024/01/17 09:00:53;;;;;;;86.70;82.10;;;9.20;81.20;;;;;;12639937;28;20024;-75
2024/01/17 09:06:55;;;;;;;70.43;66.97;;;9.30;80.90;;;;;;12659243;28;20032;-74
2024/01/17 09:12:56;;;;;;;67.40;63.55;;;9.30;80.80;;;;;;12662319;28;20035;-75
2024/01/17 09:18:58;;;;;;;59.03;55.97;;;9.30;80.70;;;;;;12643891;28;20044;-75
2024/01/17 09:25:00;;;;;;;43.72;41.10;;;9.20;81.20;;;;;;12662352;28;20336;-76
2024/01/17 09:31:02;;;;;;;56.83;53.88;;;9.20;81.10;;;;;;12628267;28;20459;-76
2024/01/17 09:37:05;;;;;;;89.13;85.07;;;9.20;81.60;;;;;;12643060;28;20032;-76
2024/01/17 09:43:08;;;;;;;109.20;104.60;;;9.20;81.40;;;;;;12660996;28;20032;-76
2024/01/17 09:49:10;;;;;;;58.08;55.40;;;9.30;81.20;;;;;;12643228;28;20442;-77
2024/01/17 09:55:13;;;;;;;77.72;73.75;;;9.20;81.20;;;;;;12642098;28;20039;-76
2024/01/17 10:01:16;;;;;;;65.78;62.22;;;9.20;81.60;;;;;;12659827;28;20051;-76
2024/01/17 10:07:18;;;;;;;113.65;109.03;;;9.20;81.70;;;;;;12641565;28;20040;-76
2024/01/17 10:13:20;;;;;;;65.90;62.67;;;9.20;81.60;;;;;;12659373;28;20031;-76
2024/01/17 10:19:24;;;;;;;66.90;63.72;;;9.10;81.50;;;;;;12658337;28;20448;-75
2024/01/17 10:25:26;;;;;;;80.18;76.63;;;9.10;81.90;;;;;;12658813;28;20040;-76
2024/01/17 10:31:30;;;;;;;47.97;44.92;;;9.10;81.70;;;;;;12658607;28;20043;-76
2024/01/17 10:37:32;;;;;;;69.22;65.97;;;9.00;81.80;;;;;;12658149;28;20036;-75
2024/01/17 10:43:53;;;;;;;64.70;61.50;;;8.80;82.00;;;;;;12657916;28;20035;-76
2024/01/17 10:49:55;;;;;;;62.33;59.08;;;8.70;82.10;;;;;;12639618;28;20039;-75
2024/01/17 10:56:02;;;;;;;49.72;46.75;;;8.70;82.20;;;;;;12639246;28;20054;-75
2024/01/17 11:02:04;;;;;;;59.63;56.72;;;8.90;82.20;;;;;;12639553;28;20027;-76
2024/01/17 11:08:06;;;;;;;86.00;82.18;;;9.00;81.90;;;;;;12656736;28;20043;-75
2024/01/17 11:14:10;;;;;;;70.18;66.80;;;8.90;81.90;;;;;;12638399;28;20047;-75
2024/01/17 11:20:12;;;;;;;83.45;79.70;;;9.00;82.20;;;;;;12621192;28;20355;-75
2024/01/17 11:26:55;;;;;;;90.25;86.18;;;9.10;82.20;;;;;;12655686;28;20027;-76
2024/01/17 11:33:12;;;;;;;98.00;93.85;;;9.20;81.80;;;;;;12550214;28;20056;-75
2024/01/17 11:39:18;;;;;;;95.40;91.32;;;9.20;81.70;;;;;;12533155;28;20068;-76
2024/01/17 11:45:20;;;;;;;94.82;90.50;;;9.20;81.90;;;;;;12566161;28;20044;-76
2024/01/17 11:51:25;;;;;;;96.75;92.30;;;9.20;82.00;;;;;;12565772;28;20357;-75
2024/01/17 11:57:32;;;;;;;102.22;97.88;;;9.30;81.90;;;;;;12523803;28;20382;-75
2024/01/17 12:03:34;;;;;;;89.93;85.82;;;9.40;81.90;;;;;;12500009;28;20358;-73
2024/01/17 12:09:37;;;;;;;126.90;121.40;;;9.40;82.10;;;;;;12547087;28;20059;-74
2024/01/17 12:15:38;;;;;;;124.65;119.18;;;9.30;82.30;;;;;;12535648;28;20029;-74
2024/01/17 12:21:41;;;;;;;107.85;103.18;;;9.30;82.20;;;;;;12535899;28;20056;-73
2024/01/17 12:27:42;;;;;;;124.45;119.10;;;9.20;82.80;;;;;;12553707;28;20025;-73
2024/01/17 12:33:45;;;;;;;109.80;104.97;;;9.20;82.80;;;;;;12536284;28;20044;-73
2024/01/17 12:39:47;;;;;;;82.13;78.38;;;9.30;83.10;;;;;;12538697;28;20476;-73
2024/01/17 12:45:49;;;;;;;102.22;97.47;;;9.20;82.90;;;;;;12563416;28;20033;-74
2024/01/17 12:51:51;;;;;;;63.83;60.58;;;9.20;83.10;;;;;;12563250;28;20028;-74
2024/01/17 12:57:53;;;;;;;79.90;76.05;;;9.00;83.30;;;;;;12563317;28;20028;-74
2024/01/17 13:04:03;;;;;;;98.60;94.22;;;8.90;83.50;;;;;;12563324;28;20032;-74
2024/01/17 13:10:18;;;;;;;89.70;85.85;;;9.20;83.60;;;;;;12562349;28;20345;-74
2024/01/17 13:16:20;;;;;;;133.55;127.50;;;9.30;83.10;;;;;;12561968;28;20037;-74
2024/01/17 13:22:22;;;;;;;94.47;90.32;;;9.50;82.80;;;;;;12562342;28;20037;-75
2024/01/17 13:28:24;;;;;;;118.85;113.68;;;9.60;82.60;;;;;;12544097;28;20056;-75
2024/01/17 13:34:26;;;;;;;101.70;97.22;;;9.70;82.30;;;;;;12561237;28;20033;-74
2024/01/17 13:40:29;;;;;;;74.95;71.45;;;9.70;82.20;;;;;;12560753;28;20349;-74
2024/01/17 13:46:31;;;;;;;123.47;118.78;;;9.80;82.00;;;;;;12560490;28;20033;-74
2024/01/17 13:52:36;;;;;;;124.30;119.30;;;9.70;81.80;;;;;;12559106;28;20429;-74
2024/01/17 13:58:39;;;;;;;88.22;84.28;;;9.70;81.90;;;;;;12559867;28;20045;-73
2024/01/17 14:04:41;;;;;;;134.32;129.07;;;9.70;81.60;;;;;;12572421;28;20020;-75
2024/01/17 14:10:43;;;;;;;110.97;106.57;;;9.70;81.90;;;;;;12609172;28;20033;-74
2024/01/17 14:16:45;;;;;;;73.40;70.00;;;9.90;81.90;;;;;;12608957;28;20035;-74
2024/01/17 14:22:48;;;;;;;113.25;108.72;;;10.10;81.60;;;;;;12608683;28;20040;-74
2024/01/17 14:28:50;;;;;;;45.47;43.22;;;10.10;81.10;;;;;;12590492;28;20037;-76
2024/01/17 14:34:52;;;;;;;91.20;87.32;;;10.20;81.00;;;;;;12607728;28;20036;-76
2024/01/17 14:40:54;;;;;;;66.15;63.25;;;10.20;81.10;;;;;;12607511;28;20349;-75
2024/01/17 14:46:56;;;;;;;67.05;64.22;;;10.20;80.80;;;;;;12589779;28;20040;-75
2024/01/17 14:52:57;;;;;;;84.07;80.55;;;10.00;80.50;;;;;;12607207;28;20021;-75
2024/01/17 14:59:00;;;;;;;11.45;9.05;;;9.90;80.50;;;;;;12591576;22;20357;-75
2024/01/17 15:05:01;;;;;;;81.65;78.15;;;9.70;80.30;;;;;;12606367;28;20039;-75
2024/01/17 15:11:03;;;;;;;41.83;39.45;;;9.20;80.60;;;;;;12588425;28;20036;-75
2024/01/17 15:17:05;;;;;;;53.63;50.88;;;8.90;81.40;;;;;;12605913;28;20039;-75
2024/01/17 15:23:08;;;;;;;80.88;77.28;;;9.20;81.40;;;;;;12587788;28;20028;-75
2024/01/17 15:29:14;;;;;;;74.85;71.40;;;9.50;81.40;;;;;;12605665;28;20052;-76
2024/01/17 15:35:16;;;;;;;61.05;58.10;;;9.60;80.90;;;;;;12587349;28;20044;-76
2024/01/17 15:41:18;;;;;;;53.95;50.97;;;9.00;81.00;;;;;;12604896;28;20029;-75
2024/01/17 15:47:20;;;;;;;35.95;33.67;;;8.80;81.40;;;;;;12605305;28;20037;-76
2024/01/17 15:53:21;;;;;;;34.75;32.65;;;8.90;81.70;;;;;;12604370;28;20039;-76
2024/01/17 15:59:23;;;;;;;29.20;27.15;;;8.80;81.70;;;;;;12570006;28;20044;-75
2024/01/17 16:05:25;;;;;;;30.05;28.02;;;8.70;81.60;;;;;;12586323;28;20429;-76
2024/01/17 16:11:26;;;;;;;42.45;39.55;;;8.50;81.90;;;;;;12586044;28;20449;-75
2024/01/17 16:17:29;;;;;;;25.00;22.92;;;8.40;82.20;;;;;;12569320;28;20344;-75
2024/01/17 16:23:31;;;;;;;46.75;44.25;;;8.60;82.20;;;;;;12585900;28;20459;-75
2024/01/17 16:29:36;;;;;;;57.83;55.05;;;8.80;81.70;;;;;;12603593;28;20048;-75
2024/01/17 16:35:37;;;;;;;78.88;75.13;;;9.00;81.80;;;;;;12603373;28;20040;-75
2024/01/17 16:41:41;;;;;;;79.32;75.88;;;9.20;81.90;;;;;;12603254;28;20035;-75
2024/01/17 16:47:43;;;;;;;39.15;36.90;;;9.10;81.90;;;;;;12585439;28;20526;-75
2024/01/17 16:53:45;;;;;;;34.90;32.58;;;8.90;81.80;;;;;;12584770;28;20040;-75
2024/01/17 16:59:48;;;;;;;39.92;37.55;;;8.90;82.10;;;;;;12585195;28;20037;-75
2024/01/17 17:05:50;;;;;;;24.35;22.65;;;8.80;82.00;;;;;;12585490;28;20032;-75
2024/01/17 17:11:51;;;;;;;24.85;23.00;;;8.40;82.50;;;;;;12603168;28;20040;-75
2024/01/17 17:17:54;;;;;;;35.38;33.03;;;8.10;83.00;;;;;;12602258;28;20043;-75
2024/01/17 17:23:56;;;;;;;33.63;31.50;;;8.40;83.20;;;;;;12602501;28;20055;-75
2024/01/17 17:29:58;;;;;;;30.33;28.50;;;8.60;82.70;;;;;;12576987;28;20464;-73
2024/01/17 17:36:00;;;;;;;31.77;29.88;;;8.30;82.30;;;;;;12611431;28;20036;-73
2024/01/17 17:42:02;;;;;;;24.33;22.40;;;7.90;82.90;;;;;;12576622;28;20051;-73
2024/01/17 17:48:05;;;;;;;24.35;22.38;;;7.80;83.10;;;;;;12592469;28;20037;-73
2024/01/17 17:54:07;;;;;;;18.70;16.70;;;7.60;83.20;;;;;;12608973;28;20032;-73
2024/01/17 18:00:09;;;;;;;25.23;23.17;;;7.70;83.40;;;;;;12609934;28;20041;-73
2024/01/17 18:06:11;;;;;;;31.65;29.40;;;8.00;83.20;;;;;;12609585;28;20028;-73
2024/01/17 18:12:13;;;;;;;33.17;30.85;;;7.90;83.30;;;;;;12609132;28;20040;-73
2024/01/17 18:18:17;;;;;;;29.23;27.20;;;8.00;83.30;;;;;;12591242;28;20055;-74
2024/01/17 18:24:19;;;;;;;25.65;23.40;;;8.20;83.20;;;;;;12608180;28;20025;-74
2024/01/17 18:30:21;;;;;;;53.00;50.05;;;8.10;83.10;;;;;;12608444;28;20350;-74
2024/01/17 18:36:22;;;;;;;35.25;32.45;;;8.00;83.20;;;;;;12607639;28;20029;-73
2024/01/17 18:42:24;;;;;;;24.10;22.02;;;8.00;83.00;;;;;;12573563;28;20064;-73
2024/01/17 18:48:26;;;;;;;29.23;27.05;;;7.70;83.20;;;;;;12590078;28;20044;-74
2024/01/17 18:54:28;;;;;;;27.25;24.75;;;7.70;83.50;;;;;;12607264;28;20035;-73
2024/01/17 19:00:29;;;;;;;21.00;18.95;;;7.50;83.50;;;;;;12556506;28;20032;-73
2024/01/17 19:06:32;;;;;;;25.17;22.88;;;7.30;83.60;;;;;;12539213;28;20040;-73
2024/01/17 19:12:34;;;;;;;45.58;42.80;;;7.30;83.90;;;;;;12537953;28;20048;-73
2024/01/17 19:18:36;;;;;;;22.88;20.60;;;7.30;83.90;;;;;;12538488;28;20449;-74
2024/01/17 19:24:38;;;;;;;39.78;36.72;;;7.40;84.10;;;;;;12538816;28;20029;-75
2024/01/17 19:30:40;;;;;;;17.35;15.68;;;7.40;83.60;;;;;;12555834;28;20424;-74
2024/01/17 19:36:41;;;;;;;30.88;28.27;;;7.20;83.90;;;;;;12555439;28;20047;-75
2024/01/17 19:42:44;;;;;;;44.03;40.63;;;7.20;84.10;;;;;;12555183;28;20048;-74
2024/01/17 19:48:47;;;;;;;24.85;18.60;;;7.30;83.90;;;;;;12554778;28;20040;-74
2024/01/17 19:54:49;;;;;;;24.33;21.25;;;7.30;84.20;;;;;;12554845;28;20044;-74
2024/01/17 20:00:50;;;;;;;22.92;20.80;;;7.40;84.00;;;;;;12569902;28;20040;-74
2024/01/17 20:06:52;;;;;;;21.48;19.40;;;7.40;84.00;;;;;;12570450;28;20024;-74
2024/01/17 20:12:58;;;;;;;34.13;31.20;;;7.30;84.10;;;;;;12604572;28;20040;-75
2024/01/17 20:19:03;;;;;;;32.17;29.58;;;7.30;84.30;;;;;;12603851;28;20344;-76
2024/01/17 20:25:05;;;;;;;59.13;55.42;;;7.50;84.20;;;;;;12585797;28;20065;-76
2024/01/17 20:31:09;;;;;;;29.48;27.13;;;7.70;84.10;;;;;;12585628;28;20029;-75
2024/01/17 20:37:11;;;;;;;24.67;22.42;;;7.80;83.90;;;;;;12568695;28;20471;-75
2024/01/17 20:43:13;;;;;;;28.52;26.15;;;7.90;83.80;;;;;;12602133;28;20028;-76
2024/01/17 20:49:15;;;;;;;29.42;26.95;;;7.90;83.90;;;;;;12586184;28;20440;-76
2024/01/17 20:55:17;;;;;;;29.30;26.92;;;8.00;84.00;;;;;;12602876;28;20036;-76
2024/01/17 21:01:19;;;;;;;26.23;23.92;;;8.10;84.10;;;;;;12606507;28;20032;-75
2024/01/17 21:07:20;;;;;;;49.13;46.05;;;8.10;84.30;;;;;;12612956;28;20440;-75
2024/01/17 21:13:22;;;;;;;42.60;39.55;;;8.10;84.30;;;;;;12594253;28;20333;-75
2024/01/17 21:19:24;;;;;;;45.25;41.70;;;8.10;84.10;;;;;;12594441;28;20043;-75
2024/01/17 21:25:25;;;;;;;62.95;58.88;;;8.10;84.10;;;;;;12594236;28;20336;-75
2024/01/17 21:31:27;;;;;;;39.67;36.92;;;8.10;84.10;;;;;;12611099;28;20036;-75
2024/01/17 21:37:29;;;;;;;31.27;28.55;;;8.00;84.00;;;;;;12610793;28;20040;-75
2024/01/17 21:43:30;;;;;;;47.10;44.22;;;7.80;84.10;;;;;;12592793;28;20040;-75
2024/01/17 21:49:32;;;;;;;35.95;32.95;;;7.80;84.20;;;;;;12610394;28;20052;-76
2024/01/17 21:55:34;;;;;;;35.10;31.98;;;7.90;84.30;;;;;;12610158;28;20047;-75
2024/01/17 22:01:36;;;;;;;38.83;36.00;;;7.90;84.10;;;;;;12609684;28;20044;-75
2024/01/17 22:07:38;;;;;;;43.88;40.60;;;7.80;84.00;;;;;;12592457;28;20043;-75
2024/01/17 22:13:40;;;;;;;26.58;24.05;;;7.70;84.30;;;;;;12574187;28;20044;-75
2024/01/17 22:19:42;;;;;;;25.15;23.10;;;7.70;84.50;;;;;;12574770;28;20051;-75
2024/01/17 22:25:43;;;;;;;31.52;29.10;;;7.70;84.30;;;;;;12590935;28;20029;-76
2024/01/17 22:31:45;;;;;;;20.65;18.58;;;7.50;84.40;;;;;;12590569;28;20044;-75
2024/01/17 22:37:47;;;;;;;19.30;16.95;;;7.30;84.60;;;;;;12590289;28;20028;-76
2024/01/17 22:43:49;;;;;;;30.42;28.13;;;7.30;84.70;;;;;;12590190;28;20035;-76
2024/01/17 22:49:51;;;;;;;32.63;30.05;;;7.40;84.60;;;;;;12573912;28;20032;-76
2024/01/17 22:55:52;;;;;;;29.48;27.35;;;7.30;84.60;;;;;;12574135;28;20333;-76
2024/01/17 23:01:54;;;;;;;30.42;27.80;;;7.40;84.70;;;;;;12658951;22;20448;-75
2024/01/17 23:07:58;;;;;;;27.10;24.65;;;7.40;84.80;;;;;;12639078;28;20344;-76
2024/01/17 23:14:00;;;;;;;28.27;24.45;;;7.50;84.50;;;;;;12638822;28;20061;-75
2024/01/17 23:20:02;;;;;;;25.08;22.50;;;7.40;84.50;;;;;;12638362;28;20065;-76
2024/01/17 23:26:09;;;;;;;24.00;21.23;;;7.20;84.50;;;;;;12657580;28;20028;-76
2024/01/17 23:32:26;;;;;;;24.05;21.63;;;7.30;85.00;;;;;;12642009;28;20054;-77
2024/01/17 23:38:27;;;;;;;27.50;25.10;;;7.50;84.90;;;;;;12639047;28;20032;-76
2024/01/17 23:44:29;;;;;;;40.78;37.22;;;7.60;84.70;;;;;;12655422;28;20036;-76
2024/01/17 23:50:30;;;;;;;35.35;32.38;;;7.70;84.80;;;;;;12655127;28;20039;-76
2024/01/17 23:56:38;;;;;;;30.27;27.60;;;7.70;85.10;;;;;;12654816;28;20032;-76
